| time (UTC) | temp F | wind direction | speed MPH | gust MPH | rain 1hr in | rain 24hr in | rain mn in | humidity % | barometer mb |
| 20260503000535 | 73 | 254 | 4.0 | 9.0 | 0.00 | 0.00 | 0.00 | 81 | 1012.1 |
| 20260503000101 | 73 | 271 | 5.0 | 9.0 | 0.00 | 0.00 | 0.00 | 81 | 1011.9 |
| 20260502235535 | 74 | 284 | 6.0 | 10.0 | 0.00 | 0.00 | 0.00 | 81 | 1011.9 |
| 20260502235034 | 74 | 254 | 6.0 | 13.0 | 0.00 | 0.00 | 0.00 | 80 | 1011.9 |
| 20260502234600 | 74 | 267 | 7.0 | 14.0 | 0.00 | 0.00 | 0.00 | 80 | 1011.8 |
| 20260502234034 | 74 | 301 | 9.0 | 16.0 | 0.00 | 0.00 | 0.00 | 79 | 1012.0 |
| 20260502233536 | 75 | 262 | 9.0 | 18.0 | 0.00 | 0.00 | 0.00 | 79 | 1011.8 |
| 20260502233050 | 75 | 261 | 10.0 | 18.0 | 0.00 | 0.00 | 0.00 | 79 | 1011.9 |
| 20260502232536 | 75 | 260 | 10.0 | 17.0 | 0.00 | 0.00 | 0.00 | 79 | 1011.8 |
| 20260502232035 | 75 | 279 | 9.0 | 14.0 | 0.00 | 0.00 | 0.00 | 80 | 1011.7 |
| 20260502231548 | 75 | 273 | 10.0 | 13.0 | 0.00 | 0.00 | 0.00 | 80 | 1011.7 |
| 20260502231035 | 76 | 284 | 8.0 | 13.0 | 0.00 | 0.00 | 0.00 | 81 | 1011.4 |
| 20260502230534 | 76 | 289 | 7.0 | 13.0 | 0.00 | 0.00 | 0.00 | 81 | 1011.2 |
| 20260502230048 | 75 | 279 | 3.0 | 10.0 | 0.00 | 0.00 | 0.00 | 81 | 1011.0 |
| 20260502225534 | 76 | 275 | 4.0 | 9.0 | 0.00 | 0.00 | 0.00 | 80 | 1011.1 |
| 20260502225034 | 76 | 307 | 4.0 | 12.0 | 0.00 | 0.00 | 0.00 | 79 | 1010.9 |
| 20260502224548 | 77 | 286 | 6.0 | 16.0 | 0.00 | 0.00 | 0.00 | 78 | 1010.7 |
| 20260502224036 | 77 | 287 | 9.0 | 19.0 | 0.00 | 0.00 | 0.00 | 76 | 1010.7 |
| 20260502223535 | 79 | 289 | 9.0 | 20.0 | 0.00 | 0.00 | 0.00 | 75 | 1010.7 |
| 20260502223046 | 80 | 280 | 13.0 | 20.0 | 0.00 | 0.00 | 0.00 | 71 | 1010.6 |
| 20260502222536 | 82 | 262 | 11.0 | 18.0 | 0.00 | 0.00 | 0.00 | 68 | 1010.6 |
| 20260502222035 | 82 | 243 | 5.0 | 12.0 | 0.00 | 0.00 | 0.00 | 69 | 1010.4 |
| 20260502221544 | 83 | 278 | 5.0 | 12.0 | 0.00 | 0.00 | 0.00 | 68 | 1010.3 |
| 20260502221035 | 83 | 286 | 6.0 | 10.0 | 0.00 | 0.00 | 0.00 | 67 | 1010.1 |
| 20260502220535 | 83 | 255 | 6.0 | 9.0 | 0.00 | 0.00 | 0.00 | 67 | 1010.1 |
| 20260502220059 | 84 | 253 | 3.0 | 6.0 | 0.00 | 0.00 | 0.00 | 67 | 1010.0 |
| 20260502215535 | 84 | 263 | 3.0 | 9.0 | 0.00 | 0.00 | 0.00 | 66 | 1010.0 |
| 20260502215035 | 85 | 273 | 4.0 | 12.0 | 0.00 | 0.00 | 0.00 | 64 | 1009.9 |
| 20260502214549 | 85 | 249 | 6.0 | 12.0 | 0.00 | 0.00 | 0.00 | 63 | 1009.9 |
| 20260502214035 | 85 | 244 | 6.0 | 12.0 | 0.00 | 0.00 | 0.00 | 62 | 1009.8 |
| 20260502213539 | 85 | 205 | 7.0 | 12.0 | 0.00 | 0.00 | 0.00 | 62 | 1009.9 |
| 20260502213048 | 85 | 252 | 7.0 | 13.0 | 0.00 | 0.00 | 0.00 | 62 | 1010.0 |
| 20260502212535 | 86 | 232 | 8.0 | 15.0 | 0.00 | 0.00 | 0.00 | 62 | 1010.0 |
| 20260502212035 | 86 | 246 | 10.0 | 15.0 | 0.00 | 0.00 | 0.00 | 61 | 1009.9 |
| 20260502211545 | 87 | 250 | 9.0 | 15.0 | 0.00 | 0.00 | 0.00 | 61 | 1009.9 |
| 20260502211038 | 86 | 245 | 9.0 | 15.0 | 0.00 | 0.00 | 0.00 | 60 | 1009.8 |
| 20260502210537 | 86 | 247 | 9.0 | 17.0 | 0.00 | 0.00 | 0.00 | 60 | 1009.8 |
| 20260502210048 | 87 | 248 | 9.0 | 17.0 | 0.00 | 0.00 | 0.00 | 59 | 1009.7 |
| 20260502205535 | 87 | 261 | 8.0 | 16.0 | 0.00 | 0.00 | 0.00 | 59 | 1009.7 |
| 20260502205036 | 87 | 229 | 9.0 | 16.0 | 0.00 | 0.00 | 0.00 | 58 | 1009.7 |
| 20260502204544 | 87 | 262 | 8.0 | 15.0 | 0.00 | 0.00 | 0.00 | 59 | 1009.6 |
| 20260502204034 | 87 | 236 | 9.0 | 15.0 | 0.00 | 0.00 | 0.00 | 57 | 1009.6 |
| 20260502203533 | 87 | 252 | 10.0 | 16.0 | 0.00 | 0.00 | 0.00 | 57 | 1009.7 |
| 20260502203042 | 87 | 243 | 7.0 | 16.0 | 0.00 | 0.00 | 0.00 | 57 | 1009.7 |
| 20260502202534 | 87 | 246 | 9.0 | 20.0 | 0.00 | 0.00 | 0.00 | 56 | 1009.7 |
| 20260502202037 | 88 | 211 | 7.0 | 20.0 | 0.00 | 0.00 | 0.00 | 55 | 1009.7 |
| 20260502201550 | 88 | 222 | 8.0 | 20.0 | 0.00 | 0.00 | 0.00 | 54 | 1009.8 |
| 20260502201035 | 88 | 242 | 10.0 | 20.0 | 0.00 | 0.00 | 0.00 | 55 | 1009.7 |
| 20260502200533 | 88 | 216 | 10.0 | 18.0 | 0.00 | 0.00 | 0.00 | 54 | 1009.7 |
| 20260502195534 | 88 | 224 | 6.0 | 15.0 | 0.00 | 0.00 | 0.00 | 56 | 1009.8 |
| 20260502195034 | 88 | 220 | 5.0 | 15.0 | 0.00 | 0.00 | 0.00 | 56 | 1009.8 |
| 20260502194545 | 88 | 146 | 8.0 | 19.0 | 0.00 | 0.00 | 0.00 | 55 | 1009.8 |
| 20260502194035 | 88 | 165 | 7.0 | 19.0 | 0.00 | 0.00 | 0.00 | 57 | 1009.8 |
| 20260502193534 | 88 | 208 | 10.0 | 19.0 | 0.00 | 0.00 | 0.00 | 57 | 1010.0 |
| 20260502193047 | 87 | 246 | 10.0 | 19.0 | 0.00 | 0.00 | 0.00 | 57 | 1010.0 |
| 20260502192535 | 87 | 233 | 9.0 | 19.0 | 0.00 | 0.00 | 0.00 | 57 | 1010.0 |
| 20260502192034 | 88 | 251 | 8.0 | 16.0 | 0.00 | 0.00 | 0.00 | 57 | 1010.0 |
| 20260502191547 | 88 | 163 | 6.0 | 16.0 | 0.00 | 0.00 | 0.00 | 56 | 1010.1 |
| 20260502191038 | 88 | 138 | 6.0 | 15.0 | 0.00 | 0.00 | 0.00 | 55 | 1010.1 |
| 20260502190534 | 88 | 243 | 4.0 | 15.0 | 0.00 | 0.00 | 0.00 | 56 | 1010.1 |
| 20260502190048 | 88 | 174 | 4.0 | 15.0 | 0.00 | 0.00 | 0.00 | 54 | 1010.1 |
| 20260502185535 | 89 | 279 | 5.0 | 19.0 | 0.00 | 0.00 | 0.00 | 54 | 1010.1 |
| 20260502185034 | 89 | 252 | 7.0 | 19.0 | 0.00 | 0.00 | 0.00 | 55 | 1010.1 |
| 20260502184547 | 89 | 175 | 5.0 | 12.0 | 0.00 | 0.00 | 0.00 | 54 | 1010.1 |
| 20260502184035 | 90 | 175 | 5.0 | 18.0 | 0.00 | 0.00 | 0.00 | 52 | 1010.1 |
| 20260502183613 | 90 | 184 | 6.0 | 18.0 | 0.00 | 0.00 | 0.00 | 52 | 1010.0 |
| 20260502183049 | 90 | 247 | 6.0 | 18.0 | 0.00 | 0.00 | 0.00 | 54 | 1010.0 |
| 20260502182535 | 90 | 191 | 6.0 | 20.0 | 0.00 | 0.00 | 0.00 | 53 | 1010.1 |
| 20260502182034 | 90 | 194 | 6.0 | 20.0 | 0.00 | 0.00 | 0.00 | 56 | 1010.1 |
| 20260502181544 | 90 | 169 | 7.0 | 19.0 | 0.00 | 0.00 | 0.00 | 56 | 1010.2 |
| 20260502181035 | 90 | 190 | 4.0 | 21.0 | 0.00 | 0.00 | 0.00 | 55 | 1010.2 |
| 20260502180533 | 89 | 218 | 6.0 | 21.0 | 0.00 | 0.00 | 0.00 | 57 | 1010.2 |
| 20260502164035 | 85 | 133 | 13.0 | 22.0 | 0.00 | 0.00 | 0.00 | 72 | 1011.2 |
| 20260502163534 | 85 | 156 | 5.0 | 21.0 | 0.00 | 0.00 | 0.00 | 72 | 1011.3 |
| 20260502163050 | 85 | 169 | 10.0 | 21.0 | 0.00 | 0.00 | 0.00 | 71 | 1011.4 |
| 20260502162535 | 85 | 194 | 9.0 | 20.0 | 0.00 | 0.00 | 0.00 | 71 | 1011.5 |
| 20260502162040 | 85 | 176 | 9.0 | 23.0 | 0.00 | 0.00 | 0.00 | 72 | 1011.6 |
| 20260502161545 | 85 | 170 | 12.0 | 23.0 | 0.00 | 0.00 | 0.00 | 70 | 1011.6 |
| 20260502161034 | 86 | 165 | 8.0 | 21.0 | 0.00 | 0.00 | 0.00 | 70 | 1011.6 |
| 20260502160534 | 85 | 157 | 7.0 | 21.0 | 0.00 | 0.00 | 0.00 | 71 | 1011.6 |
| 20260502152035 | 83 | 161 | 12.0 | 26.0 | 0.00 | 0.00 | 0.00 | 74 | 1011.5 |
| 20260502151607 | 83 | 166 | 11.0 | 26.0 | 0.00 | 0.00 | 0.00 | 73 | 1011.5 |
| 20260502151035 | 83 | 179 | 12.0 | 23.0 | 0.00 | 0.00 | 0.00 | 75 | 1011.6 |
| 20260502150535 | 83 | 150 | 14.0 | 23.0 | 0.00 | 0.00 | 0.00 | 75 | 1011.5 |
| 20260502130535 | 75 | 160 | 4.0 | 10.0 | 0.00 | 0.00 | 0.00 | 86 | 1011.3 |
| 20260502130105 | 74 | 143 | 5.0 | 10.0 | 0.00 | 0.00 | 0.00 | 87 | 1011.2 |
| 20260502123533 | 70 | 180 | 2.0 | 5.0 | 0.00 | 0.00 | 0.00 | 91 | 1011.3 |
| 20260502123059 | 69 | 152 | 1.0 | 3.0 | 0.00 | 0.00 | 0.00 | 92 | 1011.3 |
| 20260502122534 | 68 | 142 | 1.0 | 4.0 | 0.00 | 0.00 | 0.00 | 92 | 1011.3 |
| 20260502122034 | 68 | 154 | 2.0 | 4.0 | 0.00 | 0.00 | 0.00 | 92 | 1011.2 |
| 20260502121544 | 67 | 160 | 1.0 | 5.0 | 0.00 | 0.00 | 0.00 | 93 | 1011.1 |
| 20260502121034 | 67 | 150 | 2.0 | 5.0 | 0.00 | 0.00 | 0.00 | 93 | 1011.1 |
| 20260502120536 | 66 | 136 | 2.0 | 4.0 | 0.00 | 0.00 | 0.00 | 93 | 1011.2 |
| 20260502115533 | 65 | 137 | 2.0 | 5.0 | 0.00 | 0.00 | 0.00 | 93 | 1011.3 |
| 20260502115033 | 65 | 117 | 2.0 | 4.0 | 0.00 | 0.00 | 0.00 | 93 | 1011.4 |
| 20260502114545 | 65 | 132 | 2.0 | 4.0 | 0.00 | 0.00 | 0.00 | 93 | 1011.3 |
| 20260502114035 | 65 | 138 | 1.0 | 3.0 | 0.00 | 0.00 | 0.00 | 93 | 1011.3 |
| 20260502113534 | 64 | 0 | 1.0 | 3.0 | 0.00 | 0.00 | 0.00 | 93 | 1011.3 |
| 20260502113055 | 64 | 107 | 0.0 | 2.0 | 0.00 | 0.00 | 0.00 | 93 | 1011.3 |
| 20260502112533 | 64 | 0 | 0.0 | 2.0 | 0.00 | 0.00 | 0.00 | 93 | 1011.3 |
| 20260502112030 | 63 | 0 | 0.0 | 2.0 | 0.00 | 0.00 | 0.00 | 93 | 1011.4 |
| 20260502111549 | 63 | 0 | 0.0 | 2.0 | 0.00 | 0.00 | 0.00 | 93 | 1011.4 |
| 20260502111034 | 63 | 0 | 0.0 | 1.0 | 0.00 | 0.00 | 0.00 | 92 | 1011.4 |
| 20260502110534 | 63 | 0 | 0.0 | 1.0 | 0.00 | 0.00 | 0.00 | 92 | 1011.4 |
| 20260502110056 | 63 | 0 | 0.0 | 2.0 | 0.00 | 0.00 | 0.00 | 92 | 1011.4 |
| 20260502105535 | 63 | 0 | 0.0 | 2.0 | 0.00 | 0.00 | 0.00 | 93 | 1011.3 |
| 20260502105035 | 63 | 107 | 0.0 | 2.0 | 0.00 | 0.00 | 0.00 | 92 | 1011.3 |
| 20260502104546 | 63 | 107 | 1.0 | 2.0 | 0.00 | 0.00 | 0.00 | 92 | 1011.2 |
| 20260502104033 | 63 | 143 | 1.0 | 2.0 | 0.00 | 0.00 | 0.00 | 92 | 1011.2 |
| 20260502103530 | 63 | 143 | 1.0 | 2.0 | 0.00 | 0.00 | 0.00 | 92 | 1011.2 |
| 20260502103055 | 63 | 143 | 1.0 | 3.0 | 0.00 | 0.00 | 0.00 | 92 | 1011.2 |
| 20260502102533 | 63 | 143 | 1.0 | 3.0 | 0.00 | 0.00 | 0.00 | 92 | 1011.2 |
| 20260502102031 | 63 | 143 | 1.0 | 2.0 | 0.00 | 0.00 | 0.00 | 92 | 1011.1 |
| 20260502101556 | 64 | 143 | 1.0 | 2.0 | 0.00 | 0.00 | 0.00 | 92 | 1011.2 |
| 20260502101031 | 64 | 143 | 0.0 | 3.0 | 0.00 | 0.00 | 0.00 | 92 | 1011.2 |
| 20260502100531 | 64 | 143 | 1.0 | 3.0 | 0.00 | 0.00 | 0.00 | 92 | 1011.2 |
| 20260502091035 | 64 | 155 | 2.0 | 3.0 | 0.00 | 0.00 | 0.00 | 90 | 1011.4 |
| 20260502090535 | 65 | 0 | 0.0 | 1.0 | 0.00 | 0.00 | 0.00 | 90 | 1011.1 |
| 20260502090110 | 65 | 0 | 0.0 | 1.0 | 0.00 | 0.00 | 0.00 | 90 | 1011.0 |
| 20260502071037 | 67 | 182 | 1.0 | 5.0 | 0.00 | 0.00 | 0.00 | 88 | 1011.2 |
| 20260502070535 | 67 | 189 | 2.0 | 6.0 | 0.00 | 0.00 | 0.00 | 88 | 1011.3 |
| 20260502070107 | 67 | 178 | 2.0 | 6.0 | 0.00 | 0.00 | 0.00 | 88 | 1011.2 |
| 20260502065536 | 66 | 178 | 3.0 | 5.0 | 0.00 | 0.00 | 0.00 | 88 | 1011.3 |
| 20260502065035 | 66 | 163 | 2.0 | 5.0 | 0.00 | 0.00 | 0.00 | 88 | 1011.2 |
| 20260502064559 | 66 | 161 | 2.0 | 6.0 | 0.00 | 0.00 | 0.00 | 88 | 1011.2 |
| 20260502064034 | 66 | 175 | 3.0 | 6.0 | 0.00 | 0.00 | 0.00 | 88 | 1011.1 |
| 20260502063535 | 66 | 166 | 2.0 | 5.0 | 0.00 | 0.00 | 0.00 | 87 | 1011.3 |
| 20260502063052 | 67 | 174 | 1.0 | 4.0 | 0.00 | 0.00 | 0.00 | 87 | 1011.2 |
| 20260502062536 | 67 | 171 | 2.0 | 4.0 | 0.00 | 0.00 | 0.00 | 87 | 1011.1 |
| 20260502062036 | 67 | 156 | 2.0 | 5.0 | 0.00 | 0.00 | 0.00 | 87 | 1011.1 |
| 20260502061553 | 67 | 156 | 2.0 | 5.0 | 0.00 | 0.00 | 0.00 | 87 | 1011.2 |
| 20260502061035 | 67 | 140 | 2.0 | 3.0 | 0.00 | 0.00 | 0.00 | 87 | 1011.3 |
| 20260502060533 | 67 | 140 | 1.0 | 4.0 | 0.00 | 0.00 | 0.00 | 87 | 1011.4 |
| 20260502060044 | 67 | 147 | 2.0 | 4.0 | 0.00 | 0.00 | 0.00 | 86 | 1011.4 |
| 20260502055535 | 67 | 167 | 2.0 | 4.0 | 0.00 | 0.00 | 0.00 | 86 | 1011.5 |
| 20260502055038 | 68 | 178 | 0.0 | 2.0 | 0.00 | 0.00 | 0.00 | 85 | 1011.5 |
| 20260502054548 | 68 | 0 | 0.0 | 0.0 | 0.00 | 0.00 | 0.00 | 85 | 1011.6 |
| 20260502054035 | 68 | 0 | 0.0 | 1.0 | 0.00 | 0.00 | 0.00 | 85 | 1011.6 |
| 20260502053534 | 69 | 0 | 0.0 | 2.0 | 0.00 | 0.00 | 0.00 | 84 | 1011.7 |
| 20260502053048 | 69 | 0 | 0.0 | 2.0 | 0.00 | 0.00 | 0.00 | 84 | 1011.7 |
| 20260502052535 | 69 | 178 | 1.0 | 2.0 | 0.00 | 0.00 | 0.00 | 84 | 1011.8 |
| 20260502052034 | 69 | 178 | 1.0 | 3.0 | 0.00 | 0.00 | 0.00 | 84 | 1011.8 |
| 20260502051545 | 70 | 178 | 1.0 | 3.0 | 0.00 | 0.00 | 0.00 | 84 | 1011.8 |
| 20260502051035 | 70 | 178 | 1.0 | 3.0 | 0.00 | 0.00 | 0.00 | 84 | 1011.9 |
| 20260502050536 | 70 | 178 | 2.0 | 3.0 | 0.00 | 0.00 | 0.00 | 84 | 1011.9 |
| 20260502050046 | 70 | 155 | 2.0 | 4.0 | 0.00 | 0.00 | 0.00 | 84 | 1011.9 |
| 20260502045536 | 70 | 155 | 2.0 | 4.0 | 0.00 | 0.00 | 0.00 | 84 | 1012.0 |
| 20260502045034 | 70 | 169 | 1.0 | 4.0 | 0.00 | 0.00 | 0.00 | 84 | 1011.9 |
| 20260502044546 | 70 | 169 | 1.0 | 4.0 | 0.00 | 0.00 | 0.00 | 83 | 1012.0 |
| 20260502044034 | 71 | 182 | 1.0 | 3.0 | 0.00 | 0.00 | 0.00 | 83 | 1012.0 |
| 20260502043534 | 70 | 182 | 1.0 | 3.0 | 0.00 | 0.00 | 0.00 | 83 | 1012.0 |
| 20260502043046 | 70 | 184 | 1.0 | 3.0 | 0.00 | 0.00 | 0.00 | 83 | 1011.8 |
| 20260502042535 | 71 | 239 | 0.0 | 3.0 | 0.00 | 0.00 | 0.00 | 83 | 1011.8 |
| 20260502042035 | 71 | 236 | 2.0 | 3.0 | 0.00 | 0.00 | 0.00 | 83 | 1011.9 |
| 20260502041555 | 71 | 242 | 2.0 | 4.0 | 0.00 | 0.00 | 0.00 | 84 | 1011.9 |
| 20260502041038 | 71 | 241 | 1.0 | 4.0 | 0.00 | 0.00 | 0.00 | 84 | 1012.0 |
| 20260502040534 | 71 | 0 | 0.0 | 2.0 | 0.00 | 0.00 | 0.00 | 85 | 1012.0 |
| 20260502040045 | 71 | 0 | 0.0 | 2.0 | 0.00 | 0.00 | 0.00 | 84 | 1012.0 |
| 20260502035534 | 71 | 159 | 0.0 | 2.0 | 0.00 | 0.00 | 0.00 | 84 | 1012.0 |
| 20260502035034 | 71 | 0 | 0.0 | 2.0 | 0.00 | 0.00 | 0.00 | 84 | 1012.1 |
| 20260502034547 | 72 | 159 | 0.0 | 4.0 | 0.00 | 0.00 | 0.00 | 85 | 1012.2 |
| 20260502034034 | 72 | 0 | 1.0 | 4.0 | 0.00 | 0.00 | 0.00 | 84 | 1012.3 |
| 20260502033535 | 72 | 159 | 1.0 | 4.0 | 0.00 | 0.00 | 0.00 | 84 | 1012.2 |
| 20260502033045 | 72 | 159 | 1.0 | 4.0 | 0.00 | 0.00 | 0.00 | 84 | 1012.2 |
| 20260502032536 | 73 | 159 | 0.0 | 3.0 | 0.00 | 0.00 | 0.00 | 83 | 1012.2 |
| 20260502032039 | 73 | 0 | 0.0 | 3.0 | 0.00 | 0.00 | 0.00 | 83 | 1012.2 |
| 20260502031544 | 73 | 0 | 1.0 | 3.0 | 0.00 | 0.00 | 0.00 | 83 | 1012.1 |
| 20260502031036 | 73 | 117 | 0.0 | 2.0 | 0.00 | 0.00 | 0.00 | 83 | 1012.1 |
| 20260502030536 | 73 | 150 | 1.0 | 5.0 | 0.00 | 0.00 | 0.00 | 83 | 1012.1 |
| 20260502030050 | 73 | 150 | 1.0 | 5.0 | 0.00 | 0.00 | 0.00 | 83 | 1012.1 |
| 20260502025534 | 73 | 148 | 2.0 | 5.0 | 0.00 | 0.00 | 0.00 | 82 | 1012.1 |
| 20260502025033 | 74 | 163 | 2.0 | 5.0 | 0.00 | 0.00 | 0.00 | 82 | 1012.3 |
| 20260502024604 | 74 | 166 | 2.0 | 5.0 | 0.00 | 0.00 | 0.00 | 82 | 1012.2 |
| 20260502024036 | 74 | 159 | 2.0 | 5.0 | 0.00 | 0.00 | 0.00 | 81 | 1012.2 |
| 20260502023533 | 75 | 134 | 1.0 | 3.0 | 0.00 | 0.00 | 0.00 | 81 | 1012.2 |
| 20260502023106 | 75 | 139 | 1.0 | 5.0 | 0.00 | 0.00 | 0.00 | 81 | 1012.2 |
| 20260502022533 | 75 | 0 | 0.0 | 5.0 | 0.00 | 0.00 | 0.00 | 80 | 1012.1 |
| 20260502022035 | 75 | 0 | 1.0 | 6.0 | 0.00 | 0.00 | 0.00 | 80 | 1012.0 |
| 20260502021548 | 75 | 150 | 3.0 | 9.0 | 0.00 | 0.00 | 0.00 | 80 | 1011.8 |
| 20260502021033 | 75 | 144 | 4.0 | 9.0 | 0.00 | 0.00 | 0.00 | 80 | 1011.8 |
| 20260502020541 | 75 | 126 | 3.0 | 10.0 | 0.00 | 0.00 | 0.00 | 80 | 1011.7 |
| 20260502020044 | 75 | 111 | 3.0 | 10.0 | 0.00 | 0.00 | 0.00 | 79 | 1011.7 |
| 20260502015534 | 74 | 74 | 5.0 | 9.0 | 0.00 | 0.00 | 0.00 | 78 | 1011.6 |
| 20260502015033 | 73 | 0 | 4.0 | 9.0 | 0.00 | 0.00 | 0.00 | 78 | 1011.6 |
| 20260502014545 | 73 | 111 | 0.0 | 3.0 | 0.00 | 0.00 | 0.00 | 78 | 1011.6 |
| 20260502014034 | 73 | 0 | 0.0 | 2.0 | 0.00 | 0.00 | 0.00 | 78 | 1011.3 |
| 20260502013533 | 73 | 152 | 1.0 | 2.0 | 0.00 | 0.00 | 0.00 | 78 | 1011.1 |
| 20260502013047 | 73 | 152 | 0.0 | 2.0 | 0.00 | 0.00 | 0.00 | 78 | 1011.0 |
| 20260502012533 | 73 | 0 | 0.0 | 2.0 | 0.00 | 0.00 | 0.00 | 77 | 1010.9 |
| 20260502012033 | 73 | 0 | 0.0 | 2.0 | 0.00 | 0.00 | 0.00 | 77 | 1010.8 |
| 20260502011546 | 74 | 0 | 0.0 | 0.0 | 0.00 | 0.00 | 0.00 | 76 | 1010.8 |
| 20260502011031 | 74 | 0 | 0.0 | 0.0 | 0.00 | 0.00 | 0.00 | 76 | 1010.6 |
| 20260502010532 | 74 | 0 | 0.0 | 1.0 | 0.00 | 0.00 | 0.00 | 75 | 1010.6 |
| 20260502010051 | 75 | 0 | 0.0 | 1.0 | 0.00 | 0.00 | 0.00 | 75 | 1010.6 |
| 20260502005534 | 75 | 0 | 0.0 | 2.0 | 0.00 | 0.00 | 0.00 | 74 | 1010.5 |
| 20260502005032 | 75 | 0 | 0.0 | 2.0 | 0.00 | 0.00 | 0.00 | 74 | 1010.3 |
| 20260502004549 | 76 | 0 | 0.0 | 2.0 | 0.00 | 0.00 | 0.00 | 73 | 1010.4 |
| 20260502004035 | 76 | 0 | 0.0 | 2.0 | 0.00 | 0.00 | 0.00 | 73 | 1010.2 |
| 20260502003534 | 77 | 152 | 0.0 | 2.0 | 0.00 | 0.00 | 0.00 | 72 | 1010.2 |
| 20260502003049 | 77 | 152 | 1.0 | 2.0 | 0.00 | 0.00 | 0.00 | 72 | 1010.1 |
| 20260502002533 | 77 | 152 | 1.0 | 2.0 | 0.00 | 0.00 | 0.00 | 71 | 1010.0 |
| 20260502002033 | 77 | 152 | 1.0 | 2.0 | 0.00 | 0.00 | 0.00 | 70 | 1009.9 |
| 20260502001600 | 78 | 152 | 0.0 | 3.0 | 0.00 | 0.00 | 0.00 | 70 | 1009.8 |
| 20260502001036 | 78 | 152 | 1.0 | 3.0 | 0.00 | 0.00 | 0.00 | 69 | 1009.7 |